sensor_id;sensor_type;location;lat;lon;timestamp;pressure;altitude;pressure_sealevel;temperature;humidity
24892;BME280;12954;50.688;10.908;2023-04-05T00:01:14;96230.47;;;-1.88;51.88
24892;BME280;12954;50.688;10.908;2023-04-05T00:03:45;96232.50;;;-1.90;51.74
24892;BME280;12954;50.688;10.908;2023-04-05T00:06:14;96212.28;;;-1.98;52.14
24892;BME280;12954;50.688;10.908;2023-04-05T00:08:43;96195.97;;;-2.01;52.02
24892;BME280;12954;50.688;10.908;2023-04-05T00:11:17;96217.25;;;-1.88;52.19
24892;BME280;12954;50.688;10.908;2023-04-05T00:13:45;96216.63;;;-1.90;51.92
24892;BME280;12954;50.688;10.908;2023-04-05T00:16:14;96190.97;;;-2.11;52.01
24892;BME280;12954;50.688;10.908;2023-04-05T00:18:43;96208.06;;;-1.92;52.17
24892;BME280;12954;50.688;10.908;2023-04-05T00:21:15;96208.81;;;-1.98;52.62
24892;BME280;12954;50.688;10.908;2023-04-05T00:23:44;96212.44;;;-1.99;52.73
24892;BME280;12954;50.688;10.908;2023-04-05T00:26:12;96207.00;;;-1.98;52.57
24892;BME280;12954;50.688;10.908;2023-04-05T00:28:42;96080.72;;;-2.74;52.11
24892;BME280;12954;50.688;10.908;2023-04-05T00:31:11;96208.63;;;-1.97;52.08
24892;BME280;12954;50.688;10.908;2023-04-05T00:33:39;96209.81;;;-1.99;52.61
24892;BME280;12954;50.688;10.908;2023-04-05T00:36:10;96165.06;;;-2.37;52.51
24892;BME280;12954;50.688;10.908;2023-04-05T00:38:39;96206.16;;;-1.98;52.13
24892;BME280;12954;50.688;10.908;2023-04-05T00:41:09;96196.72;;;-2.07;52.30
24892;BME280;12954;50.688;10.908;2023-04-05T00:43:38;96199.97;;;-2.05;52.75
24892;BME280;12954;50.688;10.908;2023-04-05T00:46:08;96197.97;;;-2.03;52.01
24892;BME280;12954;50.688;10.908;2023-04-05T00:48:37;96202.63;;;-2.05;52.65
24892;BME280;12954;50.688;10.908;2023-04-05T00:51:05;96196.25;;;-2.11;53.01
24892;BME280;12954;50.688;10.908;2023-04-05T00:53:37;96171.72;;;-2.41;52.83
24892;BME280;12954;50.688;10.908;2023-04-05T00:56:07;96152.84;;;-2.38;52.80
24892;BME280;12954;50.688;10.908;2023-04-05T00:58:39;96191.97;;;-2.12;52.76
24892;BME280;12954;50.688;10.908;2023-04-05T01:01:14;96193.06;;;-2.06;52.14
24892;BME280;12954;50.688;10.908;2023-04-05T01:03:49;96178.41;;;-2.23;52.35
24892;BME280;12954;50.688;10.908;2023-04-05T01:06:51;96185.06;;;-2.13;53.13
24892;BME280;12954;50.688;10.908;2023-04-05T01:09:31;96197.81;;;-2.16;52.63
24892;BME280;12954;50.688;10.908;2023-04-05T01:12:03;96164.34;;;-2.45;52.99
24892;BME280;12954;50.688;10.908;2023-04-05T01:14:43;96186.44;;;-2.32;52.91
24892;BME280;12954;50.688;10.908;2023-04-05T01:17:13;96182.81;;;-2.31;52.71
24892;BME280;12954;50.688;10.908;2023-04-05T01:19:42;96183.66;;;-2.45;53.06
24892;BME280;12954;50.688;10.908;2023-04-05T01:22:34;96185.28;;;-2.44;53.04
24892;BME280;12954;50.688;10.908;2023-04-05T01:28:22;96180.47;;;-2.40;53.22
24892;BME280;12954;50.688;10.908;2023-04-05T01:31:06;96179.25;;;-2.38;52.89
24892;BME280;12954;50.688;10.908;2023-04-05T01:33:43;96147.69;;;-2.60;52.98
24892;BME280;12954;50.688;10.908;2023-04-05T01:36:16;96170.34;;;-2.37;53.34
24892;BME280;12954;50.688;10.908;2023-04-05T01:38:49;96168.19;;;-2.48;52.88
24892;BME280;12954;50.688;10.908;2023-04-05T01:41:17;96173.34;;;-2.40;52.88
24892;BME280;12954;50.688;10.908;2023-04-05T01:43:47;96179.25;;;-2.38;53.12
24892;BME280;12954;50.688;10.908;2023-04-05T01:46:17;96172.38;;;-2.39;53.23
24892;BME280;12954;50.688;10.908;2023-04-05T01:48:45;96177.19;;;-2.42;53.00
24892;BME280;12954;50.688;10.908;2023-04-05T01:51:13;96170.47;;;-2.45;52.97
24892;BME280;12954;50.688;10.908;2023-04-05T01:53:42;96168.59;;;-2.44;52.74
24892;BME280;12954;50.688;10.908;2023-04-05T01:56:10;96169.44;;;-2.44;52.84
24892;BME280;12954;50.688;10.908;2023-04-05T01:58:38;96164.16;;;-2.44;53.38
24892;BME280;12954;50.688;10.908;2023-04-05T02:01:07;96164.16;;;-2.44;53.30
24892;BME280;12954;50.688;10.908;2023-04-05T02:03:36;96167.81;;;-2.45;53.05
24892;BME280;12954;50.688;10.908;2023-04-05T02:06:05;96169.81;;;-2.47;53.31
24892;BME280;12954;50.688;10.908;2023-04-05T02:08:34;96167.97;;;-2.46;52.69
24892;BME280;12954;50.688;10.908;2023-04-05T02:11:02;96166.34;;;-2.47;53.04
24892;BME280;12954;50.688;10.908;2023-04-05T02:13:30;96163.28;;;-2.51;52.84
24892;BME280;12954;50.688;10.908;2023-04-05T02:15:59;96155.06;;;-2.56;52.74
24892;BME280;12954;50.688;10.908;2023-04-05T02:18:27;96144.50;;;-2.70;52.72
24892;BME280;12954;50.688;10.908;2023-04-05T02:21:02;96045.34;;;-3.23;53.13
24892;BME280;12954;50.688;10.908;2023-04-05T02:23:31;96153.81;;;-2.60;53.15
24892;BME280;12954;50.688;10.908;2023-04-05T02:26:00;96146.50;;;-2.58;52.96
24892;BME280;12954;50.688;10.908;2023-04-05T02:28:28;96153.44;;;-2.57;53.01
24892;BME280;12954;50.688;10.908;2023-04-05T02:30:57;96142.06;;;-2.57;52.79
24892;BME280;12954;50.688;10.908;2023-04-05T02:33:25;96150.97;;;-2.58;53.03
24892;BME280;12954;50.688;10.908;2023-04-05T02:35:55;96142.06;;;-2.57;52.71
24892;BME280;12954;50.688;10.908;2023-04-05T02:38:25;96144.84;;;-2.59;52.89
24892;BME280;12954;50.688;10.908;2023-04-05T02:40:53;96139.56;;;-2.59;52.98
24892;BME280;12954;50.688;10.908;2023-04-05T02:43:22;96136.94;;;-2.59;53.01
24892;BME280;12954;50.688;10.908;2023-04-05T02:45:50;96143.25;;;-2.60;52.46
24892;BME280;12954;50.688;10.908;2023-04-05T02:48:19;96137.13;;;-2.60;53.22
24892;BME280;12954;50.688;10.908;2023-04-05T02:50:47;96134.25;;;-2.65;53.31
24892;BME280;12954;50.688;10.908;2023-04-05T02:53:16;96133.78;;;-2.69;53.08
24892;BME280;12954;50.688;10.908;2023-04-05T02:55:52;96137.41;;;-2.70;53.05
24892;BME280;12954;50.688;10.908;2023-04-05T02:58:21;96139.78;;;-2.75;53.18
24892;BME280;12954;50.688;10.908;2023-04-05T03:00:50;96120.84;;;-2.93;53.47
24892;BME280;12954;50.688;10.908;2023-04-05T03:03:21;96145.69;;;-2.73;52.89
24892;BME280;12954;50.688;10.908;2023-04-05T03:05:57;96136.94;;;-2.73;53.26
24892;BME280;12954;50.688;10.908;2023-04-05T03:08:26;96140.16;;;-2.78;53.55
24892;BME280;12954;50.688;10.908;2023-04-05T03:10:56;96138.50;;;-2.79;53.17
24892;BME280;12954;50.688;10.908;2023-04-05T03:13:24;96140.31;;;-2.79;53.01
24892;BME280;12954;50.688;10.908;2023-04-05T03:15:53;96084.84;;;-3.15;53.49
24892;BME280;12954;50.688;10.908;2023-04-05T03:18:21;96138.03;;;-2.82;53.28
24892;BME280;12954;50.688;10.908;2023-04-05T03:20:52;96139.91;;;-2.83;53.31
24892;BME280;12954;50.688;10.908;2023-04-05T03:23:22;96138.25;;;-2.84;53.23
24892;BME280;12954;50.688;10.908;2023-04-05T03:25:54;96144.50;;;-2.85;53.47
24892;BME280;12954;50.688;10.908;2023-04-05T03:28:24;96141.06;;;-2.86;53.48
24892;BME280;12954;50.688;10.908;2023-04-05T03:30:53;96104.56;;;-3.11;54.05
24892;BME280;12954;50.688;10.908;2023-04-05T03:33:21;96140.16;;;-2.93;53.35
24892;BME280;12954;50.688;10.908;2023-04-05T03:35:50;96143.63;;;-2.92;53.44
24892;BME280;12954;50.688;10.908;2023-04-05T03:38:18;96142.59;;;-2.91;53.31
24892;BME280;12954;50.688;10.908;2023-04-05T03:40:47;96148.53;;;-2.89;52.89
24892;BME280;12954;50.688;10.908;2023-04-05T03:43:15;96141.63;;;-2.90;53.44
24892;BME280;12954;50.688;10.908;2023-04-05T03:45:45;96147.88;;;-2.91;53.35
24892;BME280;12954;50.688;10.908;2023-04-05T03:48:14;96138.97;;;-2.90;53.74
24892;BME280;12954;50.688;10.908;2023-04-05T03:50:45;96145.91;;;-2.89;53.18
24892;BME280;12954;50.688;10.908;2023-04-05T03:53:14;96145.91;;;-2.89;53.20
24892;BME280;12954;50.688;10.908;2023-04-05T03:55:45;96137.69;;;-2.94;53.25
24892;BME280;12954;50.688;10.908;2023-04-05T03:58:15;96151.34;;;-2.91;53.01
24892;BME280;12954;50.688;10.908;2023-04-05T04:00:45;96151.72;;;-2.94;53.21
24892;BME280;12954;50.688;10.908;2023-04-05T04:03:14;96148.44;;;-2.96;53.14
24892;BME280;12954;50.688;10.908;2023-04-05T04:05:43;96147.00;;;-2.98;53.66
24892;BME280;12954;50.688;10.908;2023-04-05T04:08:11;96107.66;;;-3.22;53.77
24892;BME280;12954;50.688;10.908;2023-04-05T04:10:40;96140.06;;;-2.99;53.74
24892;BME280;12954;50.688;10.908;2023-04-05T04:13:08;96136.44;;;-2.98;53.35
24892;BME280;12954;50.688;10.908;2023-04-05T04:15:37;96139.06;;;-2.98;53.19
24892;BME280;12954;50.688;10.908;2023-04-05T04:18:07;96139.06;;;-2.98;53.48
24892;BME280;12954;50.688;10.908;2023-04-05T04:20:36;96139.69;;;-2.96;53.64
24892;BME280;12954;50.688;10.908;2023-04-05T04:23:04;96128.78;;;-3.08;53.23
24892;BME280;12954;50.688;10.908;2023-04-05T04:25:36;96138.06;;;-2.97;53.47
24892;BME280;12954;50.688;10.908;2023-04-05T04:28:04;96032.59;;;-3.64;53.43
24892;BME280;12954;50.688;10.908;2023-04-05T04:30:34;96137.78;;;-3.02;53.22
24892;BME280;12954;50.688;10.908;2023-04-05T04:33:02;96136.53;;;-3.06;53.29
24892;BME280;12954;50.688;10.908;2023-04-05T04:35:36;96143.97;;;-3.10;53.45
24892;BME280;12954;50.688;10.908;2023-04-05T04:38:06;96135.25;;;-3.10;53.63
24892;BME280;12954;50.688;10.908;2023-04-05T04:40:35;96141.50;;;-3.11;53.46
24892;BME280;12954;50.688;10.908;2023-04-05T04:43:06;96124.13;;;-3.20;53.25
24892;BME280;12954;50.688;10.908;2023-04-05T04:45:40;96149.78;;;-3.14;54.01
24892;BME280;12954;50.688;10.908;2023-04-05T04:48:09;96145.53;;;-3.15;53.50
24892;BME280;12954;50.688;10.908;2023-04-05T04:50:41;96126.03;;;-3.29;54.46
24892;BME280;12954;50.688;10.908;2023-04-05T04:53:11;96140.63;;;-3.18;53.78
24892;BME280;12954;50.688;10.908;2023-04-05T04:55:40;96138.34;;;-3.21;53.96
24892;BME280;12954;50.688;10.908;2023-04-05T04:58:09;96139.94;;;-3.20;53.81
24892;BME280;12954;50.688;10.908;2023-04-05T05:00:39;96139.16;;;-3.21;53.93
24892;BME280;12954;50.688;10.908;2023-04-05T05:03:07;96140.78;;;-3.20;54.42
24892;BME280;12954;50.688;10.908;2023-04-05T05:05:42;96143.88;;;-3.16;54.15
24892;BME280;12954;50.688;10.908;2023-04-05T05:08:11;96144.50;;;-3.14;54.08
24892;BME280;12954;50.688;10.908;2023-04-05T05:10:40;96142.34;;;-3.11;53.70
24892;BME280;12954;50.688;10.908;2023-04-05T05:13:09;96132.25;;;-3.07;54.06
24892;BME280;12954;50.688;10.908;2023-04-05T05:15:38;96133.69;;;-3.05;53.76
24892;BME280;12954;50.688;10.908;2023-04-05T05:18:07;96132.25;;;-3.07;53.43
24892;BME280;12954;50.688;10.908;2023-04-05T05:20:36;96129.34;;;-2.98;53.84
24892;BME280;12954;50.688;10.908;2023-04-05T05:23:06;96134.69;;;-2.91;53.69
24892;BME280;12954;50.688;10.908;2023-04-05T05:25:35;96130.69;;;-2.87;53.85
24892;BME280;12954;50.688;10.908;2023-04-05T05:28:04;96128.31;;;-2.82;53.87
24892;BME280;12954;50.688;10.908;2023-04-05T05:30:32;96129.75;;;-2.79;53.90
24892;BME280;12954;50.688;10.908;2023-04-05T05:33:01;96125.97;;;-2.77;53.87
24892;BME280;12954;50.688;10.908;2023-04-05T05:35:29;96122.75;;;-2.72;53.96
24892;BME280;12954;50.688;10.908;2023-04-05T05:37:58;96117.94;;;-2.69;53.61
24892;BME280;12954;50.688;10.908;2023-04-05T05:40:28;96117.56;;;-2.66;54.29
24892;BME280;12954;50.688;10.908;2023-04-05T05:42:57;96120.66;;;-2.62;53.59
24892;BME280;12954;50.688;10.908;2023-04-05T05:45:25;96126.38;;;-2.59;54.09
24892;BME280;12954;50.688;10.908;2023-04-05T05:47:55;96122.38;;;-2.55;54.05
24892;BME280;12954;50.688;10.908;2023-04-05T05:50:23;96126.47;;;-2.67;54.39
24892;BME280;12954;50.688;10.908;2023-04-05T05:52:52;96124.78;;;-2.74;55.16
24892;BME280;12954;50.688;10.908;2023-04-05T05:55:20;96117.84;;;-2.75;54.99
24892;BME280;12954;50.688;10.908;2023-04-05T05:57:50;96126.69;;;-2.68;55.01
24892;BME280;12954;50.688;10.908;2023-04-05T06:00:19;96127.19;;;-2.58;55.17
24892;BME280;12954;50.688;10.908;2023-04-05T06:02:48;96115.72;;;-2.51;54.87
24892;BME280;12954;50.688;10.908;2023-04-05T06:05:18;96120.28;;;-2.45;54.94
24892;BME280;12954;50.688;10.908;2023-04-05T06:07:46;96120.31;;;-2.38;54.67
24892;BME280;12954;50.688;10.908;2023-04-05T06:10:14;96114.50;;;-2.34;55.28
24892;BME280;12954;50.688;10.908;2023-04-05T06:12:43;96118.00;;;-2.26;55.03
24892;BME280;12954;50.688;10.908;2023-04-05T06:15:13;96071.91;;;-2.45;54.74
24892;BME280;12954;50.688;10.908;2023-04-05T06:17:41;96121.72;;;-2.06;54.50
24892;BME280;12954;50.688;10.908;2023-04-05T06:20:11;96122.81;;;-1.94;54.65
24892;BME280;12954;50.688;10.908;2023-04-05T06:22:39;96128.41;;;-1.83;54.44
24892;BME280;12954;50.688;10.908;2023-04-05T06:25:08;96119.34;;;-1.74;54.64
24892;BME280;12954;50.688;10.908;2023-04-05T06:27:38;96123.72;;;-1.66;54.12
24892;BME280;12954;50.688;10.908;2023-04-05T06:30:07;96125.78;;;-1.61;54.19
24892;BME280;12954;50.688;10.908;2023-04-05T06:32:37;96125.84;;;-1.55;54.18
24892;BME280;12954;50.688;10.908;2023-04-05T06:35:06;96115.50;;;-1.50;54.58
24892;BME280;12954;50.688;10.908;2023-04-05T06:37:35;96098.88;;;-1.65;54.67
24892;BME280;12954;50.688;10.908;2023-04-05T06:40:04;96127.38;;;-1.39;54.21
24892;BME280;12954;50.688;10.908;2023-04-05T06:42:33;96117.59;;;-1.39;54.64
24892;BME280;12954;50.688;10.908;2023-04-05T06:45:02;96123.78;;;-1.32;54.27
24892;BME280;12954;50.688;10.908;2023-04-05T06:47:32;96115.28;;;-1.27;54.16
24892;BME280;12954;50.688;10.908;2023-04-05T06:50:04;96098.66;;;-1.42;54.38
24892;BME280;12954;50.688;10.908;2023-04-05T06:52:33;96109.78;;;-1.26;54.52
24892;BME280;12954;50.688;10.908;2023-04-05T06:55:01;96126.38;;;-1.10;54.58
24892;BME280;12954;50.688;10.908;2023-04-05T06:57:30;96121.13;;;-1.04;54.25
24892;BME280;12954;50.688;10.908;2023-04-05T06:59:59;96128.91;;;-0.96;54.03
24892;BME280;12954;50.688;10.908;2023-04-05T07:02:27;96125.47;;;-0.90;53.74
24892;BME280;12954;50.688;10.908;2023-04-05T07:04:56;96127.78;;;-0.80;53.85
24892;BME280;12954;50.688;10.908;2023-04-05T07:07:32;96131.28;;;-0.73;53.53
24892;BME280;12954;50.688;10.908;2023-04-05T07:10:00;96136.78;;;-0.68;53.28
24892;BME280;12954;50.688;10.908;2023-04-05T07:12:29;96129.91;;;-0.63;52.74
24892;BME280;12954;50.688;10.908;2023-04-05T07:14:58;96130.31;;;-0.59;52.75
24892;BME280;12954;50.688;10.908;2023-04-05T07:17:26;96129.94;;;-0.56;52.19
24892;BME280;12954;50.688;10.908;2023-04-05T07:19:55;96112.16;;;-0.62;51.83
24892;BME280;12954;50.688;10.908;2023-04-05T07:22:23;96122.84;;;-0.49;51.83
24892;BME280;12954;50.688;10.908;2023-04-05T07:24:53;96116.53;;;-0.48;51.60
24892;BME280;12954;50.688;10.908;2023-04-05T07:27:21;96124.91;;;-0.38;51.01
24892;BME280;12954;50.688;10.908;2023-04-05T07:29:50;96110.00;;;-0.39;50.72
24892;BME280;12954;50.688;10.908;2023-04-05T07:32:18;96066.75;;;-0.52;50.80
24892;BME280;12954;50.688;10.908;2023-04-05T07:34:46;96117.25;;;-0.13;49.94
24892;BME280;12954;50.688;10.908;2023-04-05T07:37:15;96128.06;;;-0.08;50.05
24892;BME280;12954;50.688;10.908;2023-04-05T07:39:43;96128.94;;;-0.01;50.09
24892;BME280;12954;50.688;10.908;2023-04-05T07:42:13;96128.31;;;0.04;49.81
24892;BME280;12954;50.688;10.908;2023-04-05T07:44:43;96125.88;;;0.09;49.52
24892;BME280;12954;50.688;10.908;2023-04-05T07:47:12;96133.22;;;0.13;49.67
24892;BME280;12954;50.688;10.908;2023-04-05T07:49:41;96137.91;;;0.18;49.40
24892;BME280;12954;50.688;10.908;2023-04-05T07:52:09;96130.16;;;0.23;49.28
24892;BME280;12954;50.688;10.908;2023-04-05T07:54:38;96129.59;;;0.34;48.69
24892;BME280;12954;50.688;10.908;2023-04-05T07:57:09;96124.06;;;0.55;47.02
24892;BME280;12954;50.688;10.908;2023-04-05T07:59:39;96128.59;;;0.48;47.11
24892;BME280;12954;50.688;10.908;2023-04-05T08:02:07;96134.28;;;0.45;47.16
24892;BME280;12954;50.688;10.908;2023-04-05T08:04:40;96129.41;;;0.48;47.49
24892;BME280;12954;50.688;10.908;2023-04-05T08:07:08;96137.16;;;0.57;47.32
24892;BME280;12954;50.688;10.908;2023-04-05T08:09:37;96134.72;;;0.68;47.36
24892;BME280;12954;50.688;10.908;2023-04-05T08:12:06;96095.91;;;0.54;47.10
24892;BME280;12954;50.688;10.908;2023-04-05T08:14:34;96133.47;;;0.90;47.00
24892;BME280;12954;50.688;10.908;2023-04-05T08:17:04;96129.97;;;0.96;46.55
24892;BME280;12954;50.688;10.908;2023-04-05T08:19:33;96125.69;;;1.08;46.55
24892;BME280;12954;50.688;10.908;2023-04-05T08:22:01;96093.78;;;1.22;44.76
24892;BME280;12954;50.688;10.908;2023-04-05T08:24:30;96126.03;;;1.32;44.72
24892;BME280;12954;50.688;10.908;2023-04-05T08:26:58;96121.94;;;1.36;45.14
24892;BME280;12954;50.688;10.908;2023-04-05T08:29:27;96126.00;;;1.45;45.39
24892;BME280;12954;50.688;10.908;2023-04-05T08:31:56;96115.13;;;1.53;45.36
24892;BME280;12954;50.688;10.908;2023-04-05T08:34:26;96119.59;;;1.72;44.78
24892;BME280;12954;50.688;10.908;2023-04-05T08:36:57;96123.84;;;1.73;44.03
24892;BME280;12954;50.688;10.908;2023-04-05T08:39:26;96103.66;;;1.59;44.39
24892;BME280;12954;50.688;10.908;2023-04-05T08:41:59;96123.03;;;1.73;43.96
24892;BME280;12954;50.688;10.908;2023-04-05T08:44:30;96117.72;;;1.73;44.23
24892;BME280;12954;50.688;10.908;2023-04-05T08:46:59;96119.53;;;1.85;44.31
24892;BME280;12954;50.688;10.908;2023-04-05T08:49:29;96110.53;;;1.80;43.66
24892;BME280;12954;50.688;10.908;2023-04-05T08:51:59;96039.50;;;1.49;43.86
24892;BME280;12954;50.688;10.908;2023-04-05T08:54:28;96117.16;;;2.08;43.37
24892;BME280;12954;50.688;10.908;2023-04-05T08:56:57;96111.09;;;2.01;42.52
24892;BME280;12954;50.688;10.908;2023-04-05T08:59:27;96112.09;;;2.00;42.95
24892;BME280;12954;50.688;10.908;2023-04-05T09:01:56;96111.66;;;2.03;42.78
24892;BME280;12954;50.688;10.908;2023-04-05T09:04:31;96113.91;;;2.06;43.01
24892;BME280;12954;50.688;10.908;2023-04-05T09:07:05;96117.56;;;2.12;43.19
24892;BME280;12954;50.688;10.908;2023-04-05T09:09:36;96118.13;;;2.20;42.86
24892;BME280;12954;50.688;10.908;2023-04-05T09:12:06;96116.41;;;2.33;42.69
24892;BME280;12954;50.688;10.908;2023-04-05T09:14:35;96100.16;;;2.41;41.70
24892;BME280;12954;50.688;10.908;2023-04-05T09:17:05;96107.88;;;2.49;41.53
24892;BME280;12954;50.688;10.908;2023-04-05T09:19:35;96110.53;;;2.49;41.35
24892;BME280;12954;50.688;10.908;2023-04-05T09:22:04;96088.69;;;2.40;40.86
24892;BME280;12954;50.688;10.908;2023-04-05T09:24:35;96108.38;;;2.39;41.30
24892;BME280;12954;50.688;10.908;2023-04-05T09:27:08;96102.94;;;2.52;41.09
24892;BME280;12954;50.688;10.908;2023-04-05T09:29:38;96105.22;;;2.49;41.09
24892;BME280;12954;50.688;10.908;2023-04-05T09:32:08;96104.19;;;2.50;40.97
24892;BME280;12954;50.688;10.908;2023-04-05T09:34:39;96103.28;;;2.62;40.42
24892;BME280;12954;50.688;10.908;2023-04-05T09:37:12;96100.47;;;2.57;40.40
24892;BME280;12954;50.688;10.908;2023-04-05T09:39:41;96107.84;;;2.55;40.15
24892;BME280;12954;50.688;10.908;2023-04-05T09:42:11;96111.13;;;2.57;39.83
24892;BME280;12954;50.688;10.908;2023-04-05T09:44:48;96108.22;;;2.59;39.70
24892;BME280;12954;50.688;10.908;2023-04-05T09:47:18;96108.50;;;2.51;40.27
24892;BME280;12954;50.688;10.908;2023-04-05T09:49:48;96099.56;;;2.63;40.19
24892;BME280;12954;50.688;10.908;2023-04-05T09:52:20;96103.94;;;2.83;39.23
24892;BME280;12954;50.688;10.908;2023-04-05T09:54:51;96098.81;;;2.81;39.58
24892;BME280;12954;50.688;10.908;2023-04-05T09:57:20;96104.50;;;3.09;39.50
24892;BME280;12954;50.688;10.908;2023-04-05T09:59:49;96105.88;;;3.37;38.01
24892;BME280;12954;50.688;10.908;2023-04-05T10:02:17;96102.31;;;3.24;38.21
24892;BME280;12954;50.688;10.908;2023-04-05T10:04:48;96096.16;;;3.24;38.80
24892;BME280;12954;50.688;10.908;2023-04-05T10:07:18;96088.50;;;3.46;39.02
24892;BME280;12954;50.688;10.908;2023-04-05T10:09:47;96099.94;;;3.53;39.17
24892;BME280;12954;50.688;10.908;2023-04-05T10:12:23;96101.72;;;3.77;38.60
24892;BME280;12954;50.688;10.908;2023-04-05T10:14:53;96088.88;;;3.85;38.31
24892;BME280;12954;50.688;10.908;2023-04-05T10:17:23;96090.78;;;3.78;38.76
24892;BME280;12954;50.688;10.908;2023-04-05T10:20:06;96084.19;;;3.81;38.46
24892;BME280;12954;50.688;10.908;2023-04-05T10:25:49;96077.94;;;3.87;38.54
24892;BME280;12954;50.688;10.908;2023-04-05T10:28:29;96084.44;;;4.09;37.19
24892;BME280;12954;50.688;10.908;2023-04-05T10:31:06;96080.78;;;3.92;38.00
24892;BME280;12954;50.688;10.908;2023-04-05T10:33:42;96070.22;;;3.97;38.01
24892;BME280;12954;50.688;10.908;2023-04-05T10:36:21;96075.38;;;4.10;37.98
24892;BME280;12954;50.688;10.908;2023-04-05T10:39:00;96074.13;;;4.13;37.73
24892;BME280;12954;50.688;10.908;2023-04-05T10:41:35;96071.94;;;4.21;37.35
24892;BME280;12954;50.688;10.908;2023-04-05T10:44:09;96072.59;;;4.35;36.15
24892;BME280;12954;50.688;10.908;2023-04-05T10:46:53;96057.97;;;4.08;36.19
24892;BME280;12954;50.688;10.908;2023-04-05T10:49:28;96071.34;;;4.19;36.18
24892;BME280;12954;50.688;10.908;2023-04-05T10:52:01;96079.34;;;4.19;36.30
24892;BME280;12954;50.688;10.908;2023-04-05T10:54:32;96017.03;;;3.84;35.47
24892;BME280;12954;50.688;10.908;2023-04-05T10:57:03;96065.84;;;4.03;36.52
24892;BME280;12954;50.688;10.908;2023-04-05T10:59:40;96064.97;;;4.20;36.34
24892;BME280;12954;50.688;10.908;2023-04-05T11:02:08;96064.53;;;4.23;35.71
24892;BME280;12954;50.688;10.908;2023-04-05T11:04:38;96063.56;;;4.18;36.60
24892;BME280;12954;50.688;10.908;2023-04-05T11:07:14;96058.28;;;4.29;36.88
24892;BME280;12954;50.688;10.908;2023-04-05T11:09:51;96060.91;;;4.48;36.36
24892;BME280;12954;50.688;10.908;2023-04-05T11:15:30;96050.34;;;4.76;36.77
24892;BME280;12954;50.688;10.908;2023-04-05T11:18:02;96020.72;;;4.66;36.71
24892;BME280;12954;50.688;10.908;2023-04-05T11:20:41;96046.84;;;5.10;36.53
24892;BME280;12954;50.688;10.908;2023-04-05T11:23:12;96052.44;;;5.20;36.60
24892;BME280;12954;50.688;10.908;2023-04-05T11:25:46;96041.38;;;5.28;34.83
24892;BME280;12954;50.688;10.908;2023-04-05T11:28:33;96044.53;;;5.14;35.09
24892;BME280;12954;50.688;10.908;2023-04-05T11:31:12;96040.56;;;5.05;35.11
24892;BME280;12954;50.688;10.908;2023-04-05T11:33:54;96039.19;;;5.02;35.91
24892;BME280;12954;50.688;10.908;2023-04-05T11:36:28;96033.47;;;5.10;36.23
24892;BME280;12954;50.688;10.908;2023-04-05T11:39:23;96037.31;;;5.26;35.74
24892;BME280;12954;50.688;10.908;2023-04-05T11:42:02;96035.09;;;5.34;35.56
24892;BME280;12954;50.688;10.908;2023-04-05T11:44:42;96031.56;;;5.45;35.20
24892;BME280;12954;50.688;10.908;2023-04-05T11:47:11;96030.25;;;5.60;35.72
24892;BME280;12954;50.688;10.908;2023-04-05T11:49:39;96019.84;;;5.75;34.90
24892;BME280;12954;50.688;10.908;2023-04-05T11:52:13;96020.31;;;5.72;34.79
24892;BME280;12954;50.688;10.908;2023-04-05T11:54:44;96018.78;;;5.76;34.29
24892;BME280;12954;50.688;10.908;2023-04-05T11:57:14;96023.38;;;5.64;34.44
24892;BME280;12954;50.688;10.908;2023-04-05T11:59:43;96004.19;;;5.55;34.68
24892;BME280;12954;50.688;10.908;2023-04-05T12:02:11;96012.53;;;5.70;34.95
24892;BME280;12954;50.688;10.908;2023-04-05T12:04:40;96012.56;;;5.87;35.02
24892;BME280;12954;50.688;10.908;2023-04-05T12:07:10;95971.66;;;5.75;34.90
24892;BME280;12954;50.688;10.908;2023-04-05T12:10:02;95996.03;;;6.18;34.37
24892;BME280;12954;50.688;10.908;2023-04-05T12:12:38;96005.38;;;6.32;34.24
24892;BME280;12954;50.688;10.908;2023-04-05T12:15:08;95994.94;;;6.47;34.34
24892;BME280;12954;50.688;10.908;2023-04-05T12:17:42;95997.41;;;6.54;33.44
24892;BME280;12954;50.688;10.908;2023-04-05T12:20:11;95995.47;;;6.49;32.74
24892;BME280;12954;50.688;10.908;2023-04-05T12:22:41;95995.97;;;6.30;33.10
24892;BME280;12954;50.688;10.908;2023-04-05T12:25:12;95990.94;;;6.33;32.95
24892;BME280;12954;50.688;10.908;2023-04-05T12:27:40;95985.81;;;6.32;33.30
24892;BME280;12954;50.688;10.908;2023-04-05T12:30:12;95975.50;;;6.40;32.01
24892;BME280;12954;50.688;10.908;2023-04-05T12:32:44;95981.19;;;6.27;31.88
24892;BME280;12954;50.688;10.908;2023-04-05T12:35:18;95979.22;;;6.23;32.44
24892;BME280;12954;50.688;10.908;2023-04-05T12:37:48;95968.38;;;6.29;32.05
24892;BME280;12954;50.688;10.908;2023-04-05T12:40:22;95958.22;;;6.15;31.86
24892;BME280;12954;50.688;10.908;2023-04-05T12:42:51;95972.41;;;6.15;31.71
24892;BME280;12954;50.688;10.908;2023-04-05T12:45:22;95960.66;;;5.88;31.89
24892;BME280;12954;50.688;10.908;2023-04-05T12:47:51;95967.81;;;5.99;31.68
24892;BME280;12954;50.688;10.908;2023-04-05T12:50:25;95968.22;;;5.91;32.16
24892;BME280;12954;50.688;10.908;2023-04-05T12:52:56;95968.97;;;6.03;32.63
24892;BME280;12954;50.688;10.908;2023-04-05T12:55:28;95958.22;;;6.31;32.55
24892;BME280;12954;50.688;10.908;2023-04-05T12:57:58;95943.91;;;6.42;32.54
24892;BME280;12954;50.688;10.908;2023-04-05T13:00:28;95949.19;;;6.71;32.49
24892;BME280;12954;50.688;10.908;2023-04-05T13:02:58;95958.16;;;6.98;32.27
24892;BME280;12954;50.688;10.908;2023-04-05T13:05:28;95949.72;;;7.11;31.25
24892;BME280;12954;50.688;10.908;2023-04-05T13:07:57;95943.09;;;6.97;31.34
24892;BME280;12954;50.688;10.908;2023-04-05T13:10:27;95947.81;;;6.90;31.48
24892;BME280;12954;50.688;10.908;2023-04-05T13:12:55;95939.44;;;6.86;31.93
24892;BME280;12954;50.688;10.908;2023-04-05T13:15:23;95942.66;;;7.05;32.46
24892;BME280;12954;50.688;10.908;2023-04-05T13:17:53;95929.78;;;7.23;30.63
24892;BME280;12954;50.688;10.908;2023-04-05T13:20:21;95930.38;;;7.09;30.63
24892;BME280;12954;50.688;10.908;2023-04-05T13:22:50;95926.13;;;6.91;30.57